Station: Smithton  

  Atmospheric Gas Attenuation - ITU Rec 676-11   ----------------- dB/100km -----------------
Date Time Temp RH % AH g/m3 Dew Point Wind Direction Speed kph Gust kph Barometer mB Rainfall Since 9am 24GHz 47GHz 76GHz 122GHz 134GHz 241GHz
03/09 19:10 9.8 77 7.15 6 20 26 1011.8 3.8 16.7 24.6 35.8 93.8 83.8 287.0
03/09 19:00 10.1 75 7.09 5.9 22 32 1011.4 3.6 16.5 24.4 35.4 92.8 82.7 283.0
03/09 18:50 10.1 73 6.9 5.5 28 39 1011.2 3.6 16.1 24.1 34.7 90.8 80.2 274.3
03/09 18:40 10.2 74 7.04 5.8 28 39 1011 3.6 16.4 24.3 35.2 92.1 81.9 280.3
03/09 18:30 10 77 7.24 6.2 28 39 1010.7 3.6 16.9 24.7 36.0 94.4 84.7 290.1
03/09 18:20 9.8 79 7.33 6.3 28 41 1010.5 3.6 17.1 24.9 36.5 95.6 86.1 295.0
03/09 18:10 10 80 7.52 6.7 32 43 1010.3 3.6 17.5 25.1 37.2 97.4 88.4 303.1
03/09 18:00 10.2 81 7.71 7.1 30 43 1010.1 3.6 17.9 25.4 37.8 99.2 90.7 311.1
03/09 17:50 10.1 83 7.85 7.3 32 46 1010 3.6 18.2 25.6 38.4 100.8 92.7 318.1
03/09 17:40 10.5 79 7.66 7 32 43 1009.6 3.2 17.7 25.2 37.5 98.2 89.6 307.5
03/09 17:30 10.6 79 7.71 7.1 32 43 1009.4 3.2 17.8 25.2 37.6 98.6 90.2 309.3
03/09 17:20 10.5 83 8.05 7.7 33 44 1009.3 3.2 18.6 25.8 39.0 102.4 94.9 325.7
03/09 17:10 10.6 83 8.1 7.8 33 46 1009.2 3.2 18.7 25.9 39.2 102.8 95.4 327.6
03/09 17:00 10.3 84 8.05 7.7 33 44 1009 3.2 18.6 25.9 39.1 102.7 95.1 326.4
03/09 16:50 10 85 7.99 7.6 35 46 1008.8 3.2 18.5 25.8 39.0 102.4 94.6 324.8
03/09 16:40 9.8 84 7.8 7.2 37 48 1008.7 3.2 18.1 25.6 38.3 100.5 92.3 316.6
03/09 16:30 9.8 84 7.8 7.2 37 52 1008.6 3.2 18.1 25.6 38.3 100.5 92.3 316.6
03/09 16:20 9.4 83 7.51 6.7 50 69 1008.5 3.2 17.5 25.2 37.3 97.9 88.8 304.5
03/09 16:10 10.1 77 7.28 6.3 50 65 1008.2 2.8 16.9 24.6 36.1 94.5 85.0 291.0
03/09 16:00 12.1 67 7.19 6.2 48 69 1007.5 2.2 16.7 23.9 34.8 91.1 81.6 279.5
03/09 15:50 12.3 68 7.38 6.6 44 63 1007.5 2.2 17.1 24.2 35.4 92.9 83.8 287.3
03/09 15:40 12.3 65 7.06 5.9 50 67 1007.4 2.2 16.4 23.7 34.2 89.5 79.7 273.0
03/09 15:30 12.2 68 7.34 6.5 50 65 1007.3 2.2 17.0 24.1 35.3 92.5 83.4 285.8
03/09 15:20 11.8 69 7.26 6.3 50 65 1007.2 2.2 16.8 24.1 35.2 92.2 82.8 283.7
03/09 15:10 12.6 69 7.63 7.1 46 65 1007 2.2 17.6 24.4 36.3 95.1 86.7 297.4
03/09 15:00 12.2 71 7.66 7.1 50 69 1007 2.2 17.7 24.6 36.6 95.9 87.5 300.2
03/09 14:50 11.8 73 7.68 7.1 48 76 1006.8 2.2 17.7 24.7 36.8 96.5 88.2 302.6
03/09 14:40 11.6 76 7.9 7.5 50 70 1006.7 2.2 18.2 25.1 37.8 99.1 91.3 313.5
03/09 14:30 11.9 66 6.99 5.8 50 80 1006.6 2 16.2 23.6 34.1 89.2 79.2 271.1
03/09 14:20 12.6 62 6.86 5.5 48 74 1006.5 1.6 15.9 23.2 33.3 87.1 76.9 263.0
03/09 14:10 13.1 58 6.62 5 50 78 1006.3 1.6 15.4 22.7 32.2 84.1 73.4 250.9
03/09 14:00 12.9 58 6.54 4.8 59 83 1006.2 1.6 15.2 22.7 31.9 83.5 72.6 248.0
03/09 13:50 12.6 67 7.41 6.6 48 74 1006 1.6 17.1 24.1 35.4 92.7 83.8 287.2
03/09 13:40 12.9 62 6.99 5.8 46 74 1005.8 1.6 16.2 23.3 33.6 88.0 78.1 267.5
03/09 13:30 13 64 7.26 6.4 46 63 1005.9 1.6 16.8 23.7 34.6 90.7 81.4 279.1
03/09 13:20 12.6 64 7.08 6 52 70 1005.7 1.6 16.4 23.5 34.1 89.2 79.6 272.5
03/09 13:10 12.7 62 6.9 5.6 63 80 1005.8 1.6 16.0 23.2 33.3 87.3 77.2 264.2
03/09 13:00 12.9 59 6.65 5.1 56 76 1005.6 1.6 15.5 22.8 32.3 84.6 73.9 252.7
03/09 12:50 12.6 64 7.08 6 50 72 1005.5 1.6 16.4 23.5 34.1 89.2 79.6 272.4
03/09 12:40 13.4 67 7.79 7.4 48 67 1005.6 1.6 17.9 24.4 36.5 95.6 87.7 301.2
03/09 12:30 13.2 65 7.46 6.8 48 67 1005.4 1.6 17.2 24.0 35.3 92.4 83.7 287.1
03/09 12:20 12.9 66 7.44 6.7 46 63 1005.5 1.6 17.2 24.0 35.3 92.6 83.8 287.4
03/09 12:10 13 66 7.49 6.8 48 69 1005.4 1.6 17.3 24.1 35.5 93.0 84.3 289.2
03/09 12:00 12.4 63 6.88 5.6 48 69 1005.4 1.6 16.0 23.3 33.4 87.4 77.2 264.3
03/09 11:50 13.1 63 7.19 6.2 46 67 1005.2 1.6 16.6 23.6 34.3 89.8 80.4 275.5
03/09 11:40 12.5 66 7.26 6.3 39 54 1005.3 1.6 16.8 23.8 34.8 91.2 81.9 280.7
03/09 11:30 12.7 68 7.57 7 39 50 1005.2 1.6 17.4 24.3 35.9 94.1 85.7 293.8
03/09 11:20 12.6 68 7.52 6.9 39 56 1005.1 1.6 17.3 24.2 35.7 93.7 85.1 291.9
03/09 11:10 12.2 74 7.99 7.7 39 57 1005.1 1.6 18.4 25.1 37.8 99.2 91.7 314.8
03/09 11:00 12.6 69 7.63 7.1 43 63 1004.8 1.6 17.6 24.4 36.2 94.8 86.5 296.8
03/09 10:50 12.2 74 7.99 7.7 35 48 1004.8 1.6 18.4 25.1 37.8 99.1 91.7 314.8
03/09 10:40 11.2 75 7.6 6.9 41 56 1004.9 1.6 17.6 24.7 36.7 96.2 87.7 300.8
03/09 10:30 10.4 75 7.23 6.2 50 78 1004.8 1.6 16.8 24.3 35.6 93.3 83.7 286.8
03/09 10:20 12.4 74 8.09 7.9 33 44 1004.5 1.2 18.6 25.1 38.1 99.9 92.7 318.5
03/09 10:10 11.8 77 8.11 7.9 35 48 1004.4 1.2 18.6 25.3 38.4 100.9 93.7 321.8
03/09 10:00 11 80 8.01 7.7 35 44 1004.3 1.2 18.5 25.4 38.4 100.8 93.3 320.4
03/09 09:50 10.4 81 7.81 7.3 39 72 1004.1 1.2 18.1 25.2 37.9 99.4 91.3 313.4
03/09 09:40 11.7 69 7.22 6.2 35 57 1004.2 0.2 16.7 23.9 34.9 91.6 82.2 281.5
03/09 09:30 12.2 68 7.34 6.5 35 54 1004 0 17.0 24.0 35.2 92.2 83.2 285.1
03/09 09:20 12.5 68 7.48 6.8 32 50 1003.8 0 17.3 24.1 35.6 93.3 84.6 290.2
03/09 09:10 12 69 7.35 6.5 33 52 1003.9 0 17.0 24.1 35.3 92.5 83.5 286.2
03/09 09:00 11.8 72 7.58 6.9 33 52 1003.8 0 17.5 24.5 36.3 95.2 86.7 297.3
03/09 08:50 11.9 70 7.41 6.6 35 46 1003.5 9.6 17.1 24.2 35.6 93.2 84.4 289.2
03/09 08:40 11.6 70 7.28 6.3 41 63 1003.3 9.6 16.9 24.0 35.2 92.2 83.0 284.4
03/09 08:30 11.6 71 7.38 6.5 35 48 1003.2 9.6 17.1 24.2 35.6 93.3 84.3 288.8
03/09 08:20 11.6 72 7.48 6.7 39 57 1002.8 9.6 17.3 24.3 35.9 94.3 85.5 293.3
03/09 08:10 11.2 79 8.01 7.7 37 57 1002.6 9.6 18.5 25.3 38.2 100.4 92.9 319.1
03/09 08:00 11.2 77 7.81 7.3 33 46 1002.3 9.6 18.0 24.9 37.4 98.2 90.3 309.8
03/09 07:50 11.2 76 7.7 7.1 32 43 1002 9.6 17.8 24.8 37.0 97.0 88.8 304.6
03/09 07:40 11.4 76 7.8 7.3 35 46 1002 9.6 18.0 24.9 37.3 97.8 89.9 308.5
03/09 07:30 11.1 80 8.06 7.8 30 39 1001.7 9.6 18.6 25.4 38.4 101.0 93.7 321.6
03/09 07:20 11 81 8.11 7.9 28 41 1001.5 9.6 18.7 25.5 38.7 101.6 94.4 324.3
03/09 07:10 11 83 8.31 8.2 30 48 1001.4 9.6 19.1 25.8 39.5 103.8 97.1 333.7
03/09 07:00 11 86 8.61 8.8 32 41 1001.3 9.6 19.8 26.3 40.7 107.1 101.2 347.9
03/09 06:50 10.9 88 8.75 9 33 44 1001.3 9.6 20.1 26.5 41.4 108.8 103.2 355.1
03/09 06:40 11 88 8.81 9.1 39 56 1001.2 9.6 20.2 26.6 41.6 109.3 103.9 357.5
03/09 06:30 11.2 88 8.92 9.3 39 50 1001.1 9.4 20.4 26.7 41.9 110.2 105.1 361.8
03/09 06:20 11.5 88 9.09 9.6 28 44 1000.7 9.4 20.8 26.9 42.4 111.6 107.0 368.4
03/09 06:10 11.6 88 9.15 9.7 33 46 1000.5 9.4 20.9 27.0 42.6 112.1 107.7 370.8
03/09 06:00 11.7 89 9.31 9.9 37 50 1000.4 9.4 21.2 27.2 43.2 113.8 109.7 378.0
03/09 05:50 12 91 9.7 10.6 37 54 1000.4 9.2 22.1 27.8 44.7 117.7 114.7 395.5
03/09 05:40 12.3 92 9.99 11 46 61 1000.1 9.2 22.7 28.2 45.8 120.5 118.3 408.0
03/09 05:30 12.4 94 10.27 11.5 39 56 1000 8.2 23.3 28.6 46.9 123.6 122.1 421.2
03/09 05:20 12.3 94 10.21 11.4 41 56 999.7 8 23.2 28.5 46.7 123.0 121.4 418.7
03/09 05:10 12.3 93 10.1 11.2 35 50 999.8 7.6 22.9 28.3 46.2 121.8 119.8 413.3
03/09 05:00 12.3 93 10.1 11.2 39 50 999.9 7 22.9 28.4 46.2 121.8 119.8 413.4
03/09 04:50 12.3 92 9.99 11 37 50 1000 6.6 22.7 28.2 45.8 120.5 118.3 408.0
03/09 04:40 12.3 92 9.99 11 37 57 1000.1 6.4 22.7 28.2 45.8 120.5 118.3 408.0
03/09 04:30 12.3 91 9.88 10.9 39 54 1000.3 4.2 22.4 28.0 45.3 119.3 116.8 402.7
03/09 04:20 12.6 89 9.85 10.8 39 59 1000.3 3.2 22.4 27.8 45.0 118.5 115.9 399.6
03/09 04:10 12.7 88 9.8 10.8 37 48 1000.4 3.2 22.2 27.7 44.7 117.8 115.1 396.7
03/09 04:00 12.7 89 9.91 10.9 41 54 1000.4 3.2 22.5 27.9 45.2 119.0 116.6 402.1
03/09 03:50 12.6 90 9.96 11 35 48 1000.4 3.2 22.6 28.0 45.5 119.8 117.4 405.0
03/09 03:40 12.4 91 9.94 11 35 48 1000.6 3.2 22.6 28.1 45.5 119.9 117.5 405.2
03/09 03:30 12.3 91 9.88 10.9 35 48 1000.9 3.2 22.4 28.0 45.3 119.4 116.8 402.9
03/09 03:20 12.4 89 9.73 10.6 37 50 1001.1 3 22.1 27.7 44.6 117.5 114.6 395.1
03/09 03:10 12.6 89 9.85 10.8 35 48 1001.2 3 22.4 27.9 45.0 118.6 116.0 399.9
03/09 03:00 12.5 89 9.79 10.7 37 57 1001.7 3 22.2 27.8 44.9 118.1 115.3 397.7
03/09 02:50 12.4 89 9.73 10.6 33 46 1001.9 3 22.1 27.8 44.7 117.6 114.7 395.3
03/09 02:40 12.5 88 9.68 10.6 32 43 1002 2.8 22.0 27.6 44.4 116.9 113.8 392.4

Last Refresh: 03-Sep-2026 18:45:38

Bureau of Meteorology